createdAt,value
2023-05-17T00:03:35.243Z,13.80
2023-05-17T00:08:38.095Z,14.00
2023-05-17T00:13:41.192Z,15.60
2023-05-17T00:18:45.802Z,14.20
2023-05-17T00:23:48.751Z,13.60
2023-05-17T00:28:51.580Z,13.60
2023-05-17T00:33:55.785Z,13.00
2023-05-17T00:38:58.673Z,14.00
2023-05-17T00:44:01.524Z,13.60
2023-05-17T00:49:05.765Z,13.20
2023-05-17T00:54:08.584Z,13.20
2023-05-17T00:59:11.483Z,13.60
2023-05-17T01:04:15.955Z,13.80
2023-05-17T01:09:18.953Z,12.00
2023-05-17T01:14:29.105Z,10.20
2023-05-17T01:19:54.482Z,14.00
2023-05-17T01:25:05.222Z,9.60
2023-05-17T01:30:11.212Z,9.20
2023-05-17T01:35:14.065Z,13.40
2023-05-17T01:40:16.894Z,13.00
2023-05-17T01:45:23.218Z,11.20
2023-05-17T01:50:30.144Z,13.20
2023-05-17T01:55:35.680Z,12.00
2023-05-17T02:00:40.088Z,12.00
2023-05-17T02:05:42.914Z,12.60
2023-05-17T02:10:45.783Z,10.60
2023-05-17T02:15:50.053Z,11.40
2023-05-17T02:20:52.916Z,9.00
2023-05-17T02:25:55.868Z,9.80
2023-05-17T02:31:00.068Z,10.80
2023-05-17T02:36:02.950Z,12.40
2023-05-17T02:41:05.928Z,14.20
2023-05-17T02:46:10.173Z,10.20
2023-05-17T02:51:13.209Z,12.80
2023-05-17T02:56:16.044Z,12.40
2023-05-17T03:01:20.537Z,10.40
2023-05-17T03:06:23.450Z,12.00
2023-05-17T03:11:27.973Z,9.40
2023-05-17T03:16:34.589Z,10.80
2023-05-17T03:21:37.863Z,11.00
2023-05-17T03:26:41.236Z,9.20
2023-05-17T03:31:47.566Z,9.20
2023-05-17T03:36:51.178Z,9.20
2023-05-17T03:41:54.095Z,9.40
2023-05-17T03:46:59.585Z,8.40
2023-05-17T03:52:03.547Z,8.00
2023-05-17T03:57:07.075Z,8.00
2023-05-17T04:02:12.572Z,6.60
2023-05-17T04:07:15.732Z,7.80
2023-05-17T04:12:18.651Z,8.00
2023-05-17T04:17:22.952Z,10.40
2023-05-17T04:22:26.749Z,9.00
2023-05-17T04:27:29.591Z,8.00
2023-05-17T04:32:34.104Z,6.00
2023-05-17T04:37:39.788Z,5.80
2023-05-17T04:42:52.713Z,6.20
2023-05-17T04:47:57.751Z,8.00
2023-05-17T04:53:00.926Z,5.60
2023-05-17T04:58:06.838Z,5.60
2023-05-17T05:03:12.494Z,5.00
2023-05-17T05:08:16.040Z,7.80
2023-05-17T05:13:21.025Z,6.00
2023-05-17T05:18:25.311Z,5.00
2023-05-17T05:23:28.349Z,4.80
2023-05-17T05:28:31.648Z,5.20
2023-05-17T05:33:36.931Z,5.80
2023-05-17T05:38:40.220Z,6.00
2023-05-17T05:43:43.388Z,6.20
2023-05-17T05:48:48.394Z,5.20
2023-05-17T05:53:51.462Z,4.00
2023-05-17T05:58:55.906Z,6.00
2023-05-17T06:04:01.114Z,5.60
2023-05-17T06:09:07.107Z,4.00
2023-05-17T06:14:09.979Z,5.00
2023-05-17T06:19:14.349Z,5.20
2023-05-17T06:24:17.935Z,4.60
2023-05-17T06:29:20.876Z,4.80
2023-05-17T06:34:25.167Z,5.80
2023-05-17T06:39:28.580Z,5.80
2023-05-17T06:44:31.553Z,6.00
2023-05-17T06:49:36.017Z,8.00
2023-05-17T06:54:38.950Z,6.00
2023-05-17T06:59:41.890Z,4.00
2023-05-17T07:04:46.241Z,5.00
2023-05-17T07:09:49.505Z,4.80
2023-05-17T07:14:52.323Z,7.80
2023-05-17T07:19:56.733Z,11.00
2023-05-17T07:24:59.658Z,10.20
2023-05-17T07:30:03.432Z,10.60
2023-05-17T07:35:08.314Z,10.80
2023-05-17T07:40:12.397Z,8.00
2023-05-17T07:45:15.559Z,8.00
2023-05-17T07:50:19.892Z,6.60
2023-05-17T07:55:23.259Z,7.00
2023-05-17T08:00:27.879Z,5.60
2023-05-17T08:05:32.247Z,6.40
2023-05-17T08:10:37.189Z,5.80
2023-05-17T08:15:40.478Z,5.00
2023-05-17T08:20:45.532Z,5.80
2023-05-17T08:25:48.466Z,3.20
2023-05-17T08:30:52.136Z,7.00
2023-05-17T08:35:57.816Z,4.40
2023-05-17T08:41:02.108Z,4.00
2023-05-17T08:46:05.163Z,4.00
2023-05-17T08:51:09.835Z,4.00
2023-05-17T08:56:12.962Z,4.00
2023-05-17T09:01:16.792Z,4.20
2023-05-17T09:06:23.014Z,5.80
2023-05-17T09:11:27.747Z,5.00
2023-05-17T09:16:31.108Z,5.00
2023-05-17T09:21:36.027Z,5.00
2023-05-17T09:26:39.502Z,4.00
2023-05-17T09:31:47.836Z,2.40
2023-05-17T09:36:58.322Z,4.20
2023-05-17T09:42:01.213Z,4.80
2023-05-17T09:47:04.080Z,4.60
2023-05-17T09:52:09.426Z,2.80
2023-05-17T09:57:12.299Z,4.00
2023-05-17T10:02:22.140Z,3.20
2023-05-17T10:07:27.812Z,2.80
2023-05-17T10:12:30.770Z,4.60
2023-05-17T10:17:35.738Z,5.00
2023-05-17T10:22:39.964Z,4.00
2023-05-17T10:27:43.048Z,4.00
2023-05-17T10:32:46.605Z,4.00
2023-05-17T10:37:51.158Z,5.00
2023-05-17T10:42:55.074Z,2.00
2023-05-17T10:47:59.723Z,5.00
2023-05-17T10:53:06.710Z,4.80
2023-05-17T10:58:19.922Z,3.20
2023-05-17T11:03:24.322Z,4.60
2023-05-17T11:08:28.550Z,4.00
2023-05-17T11:13:31.561Z,5.00
2023-05-17T11:18:50.863Z,4.00
2023-05-17T11:23:57.293Z,4.00
2023-05-17T11:29:02.480Z,4.00
2023-05-17T11:34:05.546Z,3.60
2023-05-17T11:39:13.379Z,4.00
2023-05-17T11:44:16.673Z,4.00
2023-05-17T11:49:34.387Z,4.20
2023-05-17T11:54:40.378Z,2.00
2023-05-17T11:59:44.041Z,4.20
2023-05-17T12:04:47.045Z,4.00
2023-05-17T12:09:51.372Z,3.20
2023-05-17T12:14:54.527Z,2.40
2023-05-17T12:19:57.544Z,3.60
2023-05-17T12:25:01.915Z,4.40
2023-05-17T12:30:15.772Z,2.00
2023-05-17T12:35:18.678Z,2.00
2023-05-17T12:40:22.931Z,4.00
2023-05-17T12:45:25.772Z,2.00
2023-05-17T12:50:30.415Z,2.40
2023-05-17T12:55:37.782Z,4.00
2023-05-17T13:00:40.885Z,2.00
2023-05-17T13:05:44.268Z,113.00
2023-05-17T13:10:48.463Z,165.33
2023-05-17T13:15:51.319Z,233.50
2023-05-17T13:20:54.292Z,263.50
2023-05-17T13:25:58.516Z,301.00
2023-05-17T13:31:01.428Z,304.50
2023-05-17T13:36:04.539Z,316.00
2023-05-17T13:41:09.339Z,281.50
2023-05-17T13:46:12.166Z,270.25
2023-05-17T13:51:15.196Z,240.00
2023-05-17T13:56:19.542Z,235.75
2023-05-17T14:01:31.414Z,216.75
2023-05-17T14:06:39.607Z,197.33
2023-05-17T14:11:50.565Z,201.00
2023-05-17T14:16:57.782Z,186.33
2023-05-17T14:22:06.525Z,171.00
2023-05-17T14:27:13.949Z,158.00
2023-05-17T14:32:16.800Z,151.25
2023-05-17T14:37:21.176Z,146.75
2023-05-17T14:42:25.918Z,136.50
2023-05-17T14:47:29.091Z,143.50
2023-05-17T14:52:31.928Z,127.25
2023-05-17T14:57:36.997Z,127.00
2023-05-17T15:02:40.176Z,126.00
2023-05-17T15:07:43.357Z,114.75
2023-05-17T15:12:47.674Z,108.75
2023-05-17T15:17:50.583Z,112.25
2023-05-17T15:22:53.576Z,100.75
2023-05-17T15:27:58.036Z,93.25
2023-05-17T15:33:01.386Z,99.00
2023-05-17T15:38:06.093Z,95.00
2023-05-17T15:43:10.462Z,89.50
2023-05-17T15:48:13.602Z,88.25
2023-05-17T15:53:16.627Z,85.00
2023-05-17T15:58:21.331Z,86.25
2023-05-17T16:03:24.631Z,85.75
2023-05-17T16:08:27.742Z,75.00
2023-05-17T16:13:33.290Z,79.25
2023-05-17T16:18:36.274Z,80.00
2023-05-17T16:23:39.301Z,82.00
2023-05-17T16:28:43.618Z,75.75
2023-05-17T16:33:46.581Z,70.50
2023-05-17T16:38:49.531Z,61.75
2023-05-17T16:43:53.747Z,60.50
2023-05-17T16:48:56.556Z,60.33
2023-05-17T16:53:59.403Z,55.33
2023-05-17T16:59:03.636Z,53.33
2023-05-17T17:04:06.874Z,50.33
2023-05-17T17:09:11.659Z,46.50
2023-05-17T17:14:16.206Z,45.50
2023-05-17T17:19:19.264Z,39.50
2023-05-17T17:24:22.113Z,38.75
2023-05-17T17:29:26.448Z,38.75
2023-05-17T17:34:29.618Z,35.25
2023-05-17T17:39:32.652Z,37.75
2023-05-17T17:44:36.924Z,31.00
2023-05-17T17:49:39.857Z,31.80
2023-05-17T17:54:44.071Z,27.80
2023-05-17T17:59:50.136Z,26.00
2023-05-17T18:04:53.100Z,25.40
2023-05-17T18:09:56.932Z,26.00
2023-05-17T18:15:01.882Z,21.80
2023-05-17T18:20:06.801Z,20.80
2023-05-17T18:25:10.345Z,24.80
2023-05-17T18:30:15.453Z,22.40
2023-05-17T18:35:18.397Z,22.80
2023-05-17T18:40:21.556Z,22.60
2023-05-17T18:45:25.857Z,23.00
2023-05-17T18:50:29.086Z,22.40
2023-05-17T18:55:32.250Z,22.40
2023-05-17T19:00:36.524Z,19.20
2023-05-17T19:05:39.496Z,21.80
2023-05-17T19:10:42.314Z,21.60
2023-05-17T19:15:46.549Z,22.00
2023-05-17T19:20:49.482Z,17.80
2023-05-17T19:25:53.442Z,22.00
2023-05-17T19:30:57.785Z,21.20
2023-05-17T19:36:00.786Z,18.40
2023-05-17T19:41:03.793Z,19.60
2023-05-17T19:46:10.768Z,21.80
2023-05-17T19:51:13.683Z,19.60
2023-05-17T19:56:16.591Z,17.20
2023-05-17T20:01:21.584Z,17.20
2023-05-17T20:06:26.647Z,17.40
2023-05-17T20:11:34.006Z,18.40
2023-05-17T20:16:40.184Z,17.60
2023-05-17T20:21:43.153Z,17.20
2023-05-17T20:26:46.818Z,15.60
2023-05-17T20:31:54.325Z,18.00
2023-05-17T20:36:58.275Z,17.80
2023-05-17T20:42:02.294Z,18.20
2023-05-17T20:47:07.566Z,18.40
2023-05-17T20:52:10.516Z,18.40
2023-05-17T20:57:13.391Z,18.00
2023-05-17T21:02:17.796Z,15.20
2023-05-17T21:07:20.908Z,15.00
2023-05-17T21:12:24.024Z,15.00
2023-05-17T21:17:28.724Z,17.80
2023-05-17T21:22:31.773Z,16.00
2023-05-17T21:27:35.392Z,15.80
2023-05-17T21:32:39.692Z,15.00
2023-05-17T21:37:42.604Z,16.60
2023-05-17T21:42:45.696Z,15.00
2023-05-17T21:47:49.975Z,16.80
2023-05-17T21:52:53.268Z,14.00
2023-05-17T21:57:56.295Z,15.40
2023-05-17T22:03:00.841Z,14.40
2023-05-17T22:08:03.923Z,14.20
2023-05-17T22:13:08.034Z,13.80
2023-05-17T22:18:13.840Z,14.20
2023-05-17T22:23:16.849Z,14.20
2023-05-17T22:28:19.679Z,13.00
2023-05-17T22:33:23.944Z,13.40
2023-05-17T22:38:26.850Z,12.60
2023-05-17T22:43:30.082Z,14.00
2023-05-17T22:48:37.263Z,14.60
2023-05-17T22:53:40.441Z,15.00
2023-05-17T22:58:43.460Z,13.00
2023-05-17T23:03:47.753Z,11.00
2023-05-17T23:08:52.569Z,13.20
2023-05-17T23:13:55.693Z,13.00
2023-05-17T23:19:00.133Z,11.00
2023-05-17T23:24:03.107Z,14.20
2023-05-17T23:29:05.954Z,10.80
2023-05-17T23:34:10.181Z,14.40
2023-05-17T23:39:12.999Z,13.80
2023-05-17T23:44:17.850Z,11.40
2023-05-17T23:49:23.030Z,13.00
2023-05-17T23:54:25.898Z,12.00
2023-05-17T23:59:29.468Z,12.00
